createdAt,value
2018-04-11T00:00:49.103Z,12.30
2018-04-11T00:03:17.364Z,12.63
2018-04-11T00:05:46.382Z,13.63
2018-04-11T00:08:14.627Z,12.60
2018-04-11T00:10:43.650Z,12.27
2018-04-11T00:13:11.923Z,9.80
2018-04-11T00:15:40.168Z,9.93
2018-04-11T00:18:09.186Z,12.03
2018-04-11T00:20:37.448Z,12.37
2018-04-11T00:23:06.467Z,11.33
2018-04-11T00:25:34.741Z,13.47
2018-04-11T00:28:03.001Z,13.03
2018-04-11T00:30:32.020Z,12.20
2018-04-11T00:33:00.279Z,13.37
2018-04-11T00:35:28.535Z,16.00
2018-04-11T00:37:57.557Z,14.90
2018-04-11T00:40:25.804Z,13.13
2018-04-11T00:42:54.827Z,13.50
2018-04-11T00:45:23.077Z,14.47
2018-04-11T00:47:51.354Z,14.00
2018-04-11T00:50:20.368Z,14.30
2018-04-11T00:53:06.484Z,15.77
2018-04-11T00:55:34.747Z,16.03
2018-04-11T00:58:03.014Z,16.70
2018-04-11T01:00:31.269Z,17.47
2018-04-11T01:03:00.279Z,19.80
2018-04-11T01:05:28.535Z,19.57
2018-04-11T01:07:57.545Z,20.13
2018-04-11T01:10:25.801Z,19.07
2018-04-11T01:12:54.092Z,19.60
2018-04-11T01:15:23.084Z,20.87
2018-04-11T01:17:51.342Z,20.20
2018-04-11T01:20:20.366Z,20.70
2018-04-11T01:22:48.619Z,22.40
2018-04-11T01:25:16.878Z,24.47
2018-04-11T01:27:45.884Z,25.83
2018-04-11T01:30:14.150Z,25.53
2018-04-11T01:32:43.162Z,26.20
2018-04-11T01:35:11.443Z,19.97
2018-04-11T01:37:39.690Z,20.27
2018-04-11T01:40:08.702Z,21.00
2018-04-11T01:42:36.953Z,20.50
2018-04-11T01:45:05.965Z,18.17
2018-04-11T01:47:34.216Z,18.87
2018-04-11T01:50:03.228Z,19.50
2018-04-11T01:52:32.250Z,19.00
2018-04-11T01:55:00.497Z,15.33
2018-04-11T01:57:29.522Z,18.30
2018-04-11T01:59:57.767Z,17.30
2018-04-11T02:02:26.784Z,16.87
2018-04-11T02:04:55.044Z,16.47
2018-04-11T02:07:23.304Z,21.83
2018-04-11T02:09:52.312Z,16.53
2018-04-11T02:12:20.576Z,16.90
2018-04-11T02:14:49.583Z,20.30
2018-04-11T02:17:17.836Z,21.90
2018-04-11T02:19:46.856Z,25.10
2018-04-11T02:22:15.112Z,20.07
2018-04-11T02:24:44.127Z,19.90
2018-04-11T02:27:12.389Z,24.20
2018-04-11T02:29:40.628Z,23.00
2018-04-11T02:32:08.894Z,23.57
2018-04-11T02:34:37.915Z,18.30
2018-04-11T02:37:06.176Z,18.33
2018-04-11T02:39:34.426Z,21.03
2018-04-11T02:42:02.683Z,19.13
2018-04-11T02:44:30.932Z,18.13
2018-04-11T02:46:59.184Z,13.83
2018-04-11T02:49:27.440Z,18.40
2018-04-11T02:51:55.685Z,19.60
2018-04-11T02:54:23.936Z,15.80
2018-04-11T02:56:52.191Z,14.30
2018-04-11T02:59:20.440Z,21.20
2018-04-11T03:01:48.688Z,17.97
2018-04-11T03:04:16.939Z,21.47
2018-04-11T03:06:45.192Z,24.33
2018-04-11T03:09:14.212Z,25.67
2018-04-11T03:11:42.460Z,23.50
2018-04-11T03:14:11.482Z,23.00
2018-04-11T03:16:39.732Z,21.50
2018-04-11T03:19:08.751Z,21.17
2018-04-11T03:21:37.001Z,19.70
2018-04-11T03:24:06.025Z,24.47
2018-04-11T03:26:34.272Z,25.53
2018-04-11T03:29:03.289Z,20.57
2018-04-11T03:31:31.542Z,26.97
2018-04-11T03:34:00.556Z,23.97
2018-04-11T03:36:28.822Z,23.27
2018-04-11T03:38:57.064Z,22.30
2018-04-11T03:41:25.317Z,19.27
2018-04-11T03:43:53.566Z,22.77
2018-04-11T03:46:21.816Z,19.23
2018-04-11T03:48:50.824Z,21.27
2018-04-11T03:51:19.090Z,21.50
2018-04-11T03:53:48.100Z,22.47
2018-04-11T03:56:16.559Z,24.30
2018-04-11T03:58:45.580Z,22.53
2018-04-11T04:01:13.846Z,21.37
2018-04-11T04:03:42.079Z,24.43
2018-04-11T04:06:10.335Z,26.53
2018-04-11T04:08:38.584Z,25.73
2018-04-11T04:11:06.844Z,27.83
2018-04-11T04:13:53.031Z,27.37
2018-04-11T04:16:39.001Z,24.90
2018-04-11T04:22:17.680Z,23.07
2018-04-11T04:24:45.929Z,20.73
2018-04-11T04:27:14.948Z,22.60
2018-04-11T04:29:43.194Z,21.70
2018-04-11T04:32:12.221Z,23.63
2018-04-11T04:34:40.461Z,22.43
2018-04-11T04:37:09.483Z,22.00
2018-04-11T04:39:37.732Z,21.17
2018-04-11T04:42:06.745Z,22.43
2018-04-11T04:44:34.981Z,18.37
2018-04-11T04:47:03.243Z,15.73
2018-04-11T04:49:31.485Z,17.27
2018-04-11T04:51:59.725Z,18.67
2018-04-11T04:54:28.746Z,18.70
2018-04-11T04:56:56.985Z,16.60
2018-04-11T04:59:26.002Z,14.47
2018-04-11T05:01:54.253Z,17.40
2018-04-11T05:04:22.508Z,18.40
2018-04-11T05:06:50.747Z,13.20
2018-04-11T05:09:19.003Z,19.70
2018-04-11T05:11:47.247Z,18.83
2018-04-11T05:14:16.324Z,17.40
2018-04-11T05:16:44.513Z,17.27
2018-04-11T05:19:12.765Z,17.50
2018-04-11T05:21:41.052Z,16.80
2018-04-11T05:24:09.249Z,14.07
2018-04-11T05:26:38.257Z,13.80
2018-04-11T05:29:06.514Z,15.37
2018-04-11T05:31:35.526Z,14.50
2018-04-11T05:34:04.543Z,15.67
2018-04-11T05:36:32.791Z,15.00
2018-04-11T05:39:01.035Z,16.40
2018-04-11T05:41:29.289Z,15.53
2018-04-11T05:43:57.535Z,18.47
2018-04-11T05:46:25.785Z,14.13
2018-04-11T05:48:54.793Z,16.30
2018-04-11T05:51:23.046Z,15.37
2018-04-11T05:53:52.052Z,13.97
2018-04-11T05:56:21.075Z,17.17
2018-04-11T05:58:49.328Z,17.70
2018-04-11T06:01:18.341Z,16.73
2018-04-11T06:03:46.588Z,14.70
2018-04-11T06:06:15.616Z,15.10
2018-04-11T06:08:43.853Z,15.80
2018-04-11T06:11:12.875Z,15.47
2018-04-11T06:13:41.116Z,15.07
2018-04-11T06:16:10.133Z,15.50
2018-04-11T06:18:38.378Z,16.00
2018-04-11T06:21:07.389Z,16.17
2018-04-11T06:23:35.640Z,15.10
2018-04-11T06:26:03.892Z,13.93
2018-04-11T06:28:32.141Z,14.10
2018-04-11T06:31:00.392Z,15.53
2018-04-11T06:33:28.637Z,12.27
2018-04-11T06:35:56.884Z,14.20
2018-04-11T06:38:25.227Z,16.43
2018-04-11T06:40:53.483Z,15.00
2018-04-11T06:43:22.491Z,13.53
2018-04-11T06:45:50.741Z,13.70
2018-04-11T06:48:19.000Z,13.60
2018-04-11T06:50:47.244Z,14.60
2018-04-11T06:53:15.498Z,12.27
2018-04-11T06:55:43.739Z,12.70
2018-04-11T06:58:11.997Z,11.37
2018-04-11T07:00:40.238Z,11.73
2018-04-11T07:03:08.495Z,11.33
2018-04-11T07:05:36.766Z,9.97
2018-04-11T07:08:04.993Z,12.50
2018-04-11T07:10:33.246Z,11.10
2018-04-11T07:13:01.504Z,8.47
2018-04-11T07:15:29.753Z,10.30
2018-04-11T07:17:58.773Z,7.73
2018-04-11T07:20:27.025Z,8.63
2018-04-11T07:22:56.039Z,9.33
2018-04-11T07:25:24.289Z,6.73
2018-04-11T07:27:53.301Z,6.67
2018-04-11T07:30:21.546Z,5.90
2018-04-11T07:32:49.797Z,5.83
2018-04-11T07:35:18.053Z,5.63
2018-04-11T07:37:46.300Z,5.63
2018-04-11T07:40:14.591Z,5.90
2018-04-11T07:42:43.568Z,6.03
2018-04-11T07:45:11.831Z,5.13
2018-04-11T07:47:40.844Z,5.40
2018-04-11T07:50:09.098Z,5.50
2018-04-11T07:52:38.111Z,4.70
2018-04-11T07:55:06.364Z,5.30
2018-04-11T07:57:35.375Z,5.23
2018-04-11T08:00:03.633Z,7.30
2018-04-11T08:02:32.653Z,8.47
2018-04-11T08:05:00.909Z,8.60
2018-04-11T08:07:29.925Z,8.93
2018-04-11T08:09:58.231Z,9.83
2018-04-11T08:12:26.438Z,7.10
2018-04-11T08:14:54.693Z,7.63
2018-04-11T08:17:22.950Z,8.70
2018-04-11T08:19:51.213Z,8.20
2018-04-11T08:22:19.468Z,7.50
2018-04-11T08:24:47.717Z,8.03
2018-04-11T08:27:16.735Z,8.83
2018-04-11T08:29:44.985Z,7.93
2018-04-11T08:32:14.021Z,8.10
2018-04-11T08:34:42.271Z,7.60
2018-04-11T08:37:11.294Z,7.93
2018-04-11T08:39:39.548Z,8.43
2018-04-11T08:42:08.565Z,6.33
2018-04-11T08:44:36.813Z,5.57
2018-04-11T08:47:05.066Z,5.53
2018-04-11T08:49:33.313Z,6.63
2018-04-11T08:52:01.580Z,7.77
2018-04-11T08:54:29.829Z,6.87
2018-04-11T08:56:58.089Z,5.60
2018-04-11T08:59:27.100Z,5.50
2018-04-11T09:01:55.349Z,5.90
2018-04-11T09:04:24.364Z,5.50
2018-04-11T09:06:52.600Z,5.50
2018-04-11T09:09:20.853Z,5.50
2018-04-11T09:11:49.102Z,6.97
2018-04-11T09:14:17.353Z,6.70
2018-04-11T09:16:46.365Z,6.13
2018-04-11T09:19:14.613Z,5.93
2018-04-11T09:21:43.616Z,6.60
2018-04-11T09:24:11.877Z,6.40
2018-04-11T09:26:40.887Z,6.10
2018-04-11T09:29:09.920Z,7.90
2018-04-11T09:31:38.161Z,6.40
2018-04-11T09:34:06.420Z,5.90
2018-04-11T09:36:35.434Z,7.00
2018-04-11T09:39:03.701Z,5.53
2018-04-11T09:41:32.704Z,7.30
2018-04-11T09:44:00.956Z,6.00
2018-04-11T09:46:29.966Z,5.80
2018-04-11T09:48:58.240Z,5.80
2018-04-11T09:51:26.485Z,5.07
2018-04-11T09:53:54.729Z,6.07
2018-04-11T09:56:22.989Z,6.50
2018-04-11T09:58:51.236Z,4.93
2018-04-11T10:01:20.276Z,5.67
2018-04-11T10:03:48.517Z,5.37
2018-04-11T10:06:17.067Z,5.10
2018-04-11T10:08:45.300Z,5.07
2018-04-11T10:11:13.572Z,5.10
2018-04-11T10:13:41.808Z,5.10
2018-04-11T10:16:10.829Z,5.07
2018-04-11T10:18:39.077Z,3.80
2018-04-11T10:21:08.110Z,4.60
2018-04-11T10:23:36.349Z,3.83
2018-04-11T10:26:05.369Z,4.90
2018-04-11T10:28:33.618Z,4.30
2018-04-11T10:31:02.665Z,4.30
2018-04-11T10:33:30.905Z,4.90
2018-04-11T10:35:59.152Z,4.40
2018-04-11T10:38:28.180Z,4.93
2018-04-11T10:40:56.425Z,4.53
2018-04-11T10:43:25.447Z,4.50
2018-04-11T10:45:53.697Z,4.40
2018-04-11T10:48:22.727Z,5.20
2018-04-11T10:50:50.968Z,5.13
2018-04-11T10:53:19.993Z,5.63
2018-04-11T10:55:48.236Z,5.43
2018-04-11T10:58:17.255Z,5.43
2018-04-11T11:00:45.550Z,6.73
2018-04-11T11:03:14.517Z,5.50
2018-04-11T11:05:42.771Z,4.87
2018-04-11T11:08:11.782Z,4.60
2018-04-11T11:10:40.041Z,4.90
2018-04-11T11:13:09.340Z,5.50
2018-04-11T11:15:38.358Z,6.33
2018-04-11T11:18:06.606Z,5.57
2018-04-11T11:20:35.622Z,6.20
2018-04-11T11:23:03.863Z,5.43
2018-04-11T11:25:32.889Z,5.30
2018-04-11T11:28:01.137Z,6.20
2018-04-11T11:30:30.152Z,5.20
2018-04-11T11:32:58.399Z,5.40
2018-04-11T11:35:26.657Z,6.03
2018-04-11T11:37:54.897Z,5.17
2018-04-11T11:40:23.148Z,5.57
2018-04-11T11:42:51.402Z,4.93
2018-04-11T11:45:19.656Z,5.50
2018-04-11T11:47:47.906Z,5.30
2018-04-11T11:50:16.170Z,4.03
2018-04-11T11:52:44.415Z,5.03
2018-04-11T11:55:13.432Z,5.77
2018-04-11T11:57:41.689Z,6.27
2018-04-11T12:00:10.694Z,8.10
2018-04-11T12:02:38.947Z,7.50
2018-04-11T12:05:07.950Z,6.73
2018-04-11T12:07:36.971Z,8.07
2018-04-11T12:10:05.217Z,7.43
2018-04-11T12:12:34.233Z,8.90
2018-04-11T12:15:02.481Z,7.60
2018-04-11T12:17:31.497Z,8.00
2018-04-11T12:19:59.740Z,7.70
2018-04-11T12:22:28.760Z,8.40
2018-04-11T12:24:57.000Z,7.90
2018-04-11T12:27:25.257Z,7.73
2018-04-11T12:29:55.016Z,8.03
2018-04-11T12:32:23.272Z,9.07
2018-04-11T12:34:52.281Z,8.13
2018-04-11T12:37:20.576Z,7.70
2018-04-11T12:39:48.782Z,7.67
2018-04-11T12:42:17.018Z,6.33
2018-04-11T12:44:45.269Z,7.00
2018-04-11T12:47:14.280Z,6.50
2018-04-11T12:49:42.532Z,6.70
2018-04-11T12:52:11.544Z,7.00
2018-04-11T12:54:39.803Z,7.20
2018-04-11T12:57:08.812Z,6.43
2018-04-11T12:59:37.827Z,6.73
2018-04-11T13:02:06.067Z,6.73
2018-04-11T13:04:35.092Z,6.03
2018-04-11T13:07:03.333Z,6.53
2018-04-11T13:09:32.355Z,7.47
2018-04-11T13:12:00.595Z,7.20
2018-04-11T13:14:28.862Z,8.07
2018-04-11T13:16:57.109Z,8.70
2018-04-11T13:19:25.358Z,8.80
2018-04-11T13:21:53.609Z,9.10
2018-04-11T13:24:22.616Z,8.13
2018-04-11T13:26:50.869Z,8.23
2018-04-11T13:29:19.876Z,8.87
2018-04-11T13:31:48.911Z,9.03
2018-04-11T13:34:17.148Z,8.50
2018-04-11T13:36:45.401Z,9.57
2018-04-11T13:39:13.639Z,8.43
2018-04-11T13:41:41.901Z,7.70
2018-04-11T13:44:10.148Z,8.20
2018-04-11T13:46:38.408Z,8.20
2018-04-11T13:49:06.649Z,8.50
2018-04-11T13:51:34.893Z,8.40
2018-04-11T13:54:03.145Z,7.20
2018-04-11T13:56:32.149Z,7.30
2018-04-11T13:59:00.403Z,7.40
2018-04-11T14:01:29.412Z,6.77
2018-04-11T14:03:57.668Z,6.07
2018-04-11T14:06:26.680Z,6.73
2018-04-11T14:08:54.932Z,6.00
2018-04-11T14:11:23.172Z,6.03
2018-04-11T14:13:51.420Z,5.60
2018-04-11T14:16:19.671Z,5.53
2018-04-11T14:18:48.688Z,5.13
2018-04-11T14:21:16.936Z,4.20
2018-04-11T14:23:45.951Z,4.97
2018-04-11T14:26:14.198Z,5.60
2018-04-11T14:28:43.213Z,4.57
2018-04-11T14:31:11.448Z,6.00
2018-04-11T14:33:39.698Z,5.77
2018-04-11T14:36:07.941Z,5.57
2018-04-11T14:38:36.191Z,5.30
2018-04-11T14:41:04.446Z,5.50
2018-04-11T14:43:32.678Z,4.83
2018-04-11T14:46:00.932Z,4.97
2018-04-11T14:48:29.941Z,5.13
2018-04-11T14:50:58.188Z,5.00
2018-04-11T14:53:27.194Z,4.30
2018-04-11T14:55:56.215Z,4.40
2018-04-11T14:58:24.448Z,4.70
2018-04-11T15:00:53.468Z,4.63
2018-04-11T15:03:21.710Z,4.83
2018-04-11T15:05:49.995Z,4.83
2018-04-11T15:08:19.016Z,4.60
2018-04-11T15:10:47.265Z,4.70
2018-04-11T15:13:16.272Z,4.97
2018-04-11T15:15:44.511Z,4.20
2018-04-11T15:18:12.765Z,4.70
2018-04-11T15:20:41.011Z,5.10
2018-04-11T15:23:09.309Z,4.83
2018-04-11T15:25:38.269Z,5.10
2018-04-11T15:28:06.520Z,4.37
2018-04-11T15:30:34.757Z,5.10
2018-04-11T15:33:03.004Z,5.07
2018-04-11T15:35:31.249Z,4.67
2018-04-11T15:38:00.261Z,4.60
2018-04-11T15:40:28.508Z,4.67
2018-04-11T15:42:56.767Z,4.67
2018-04-11T15:45:25.009Z,4.60
2018-04-11T15:47:53.260Z,5.10
2018-04-11T15:50:21.504Z,3.70
2018-04-11T15:52:49.748Z,4.40
2018-04-11T15:55:17.991Z,3.63
2018-04-11T15:57:46.239Z,3.67
2018-04-11T16:00:15.256Z,4.57
2018-04-11T16:02:43.510Z,4.17
2018-04-11T16:05:11.748Z,4.10
2018-04-11T16:07:39.993Z,4.83
2018-04-11T16:10:08.232Z,5.07
2018-04-11T16:12:36.489Z,4.17
2018-04-11T16:15:04.731Z,4.67
2018-04-11T16:17:32.966Z,4.30
2018-04-11T16:20:01.981Z,3.70
2018-04-11T16:22:30.221Z,4.20
2018-04-11T16:24:58.470Z,3.80
2018-04-11T16:27:26.711Z,4.20
2018-04-11T16:29:54.958Z,3.67
2018-04-11T16:32:23.965Z,3.40
2018-04-11T16:34:52.978Z,3.53
2018-04-11T16:37:21.215Z,3.83
2018-04-11T16:39:50.235Z,4.37
2018-04-11T16:42:18.472Z,4.70
2018-04-11T16:44:46.720Z,3.97
2018-04-11T16:47:14.960Z,3.83
2018-04-11T16:49:43.211Z,3.93
2018-04-11T16:52:12.267Z,3.53
2018-04-11T16:54:41.272Z,5.43
2018-04-11T16:57:09.488Z,5.70
2018-04-11T16:59:38.499Z,5.27
2018-04-11T17:02:06.749Z,4.60
2018-04-11T17:04:35.764Z,4.80
2018-04-11T17:07:04.003Z,5.00
2018-04-11T17:09:32.280Z,5.00
2018-04-11T17:12:00.500Z,4.87
2018-04-11T17:14:28.753Z,5.20
2018-04-11T17:16:57.765Z,5.40
2018-04-11T17:19:26.009Z,5.37
2018-04-11T17:22:13.002Z,6.27
2018-04-11T17:24:59.065Z,7.07
2018-04-11T17:27:45.281Z,7.70
2018-04-11T17:30:31.359Z,7.87
2018-04-11T17:32:59.577Z,6.53
2018-04-11T17:35:28.583Z,6.97
2018-04-11T17:37:57.618Z,6.83
2018-04-11T17:40:25.857Z,6.90
2018-04-11T17:42:54.104Z,5.83
2018-04-11T17:45:22.353Z,14.33
2018-04-11T17:47:50.603Z,8.77
2018-04-11T17:50:18.854Z,6.03
2018-04-11T17:52:47.870Z,7.37
2018-04-11T17:55:16.113Z,5.70
2018-04-11T17:57:45.127Z,6.27
2018-04-11T18:00:13.375Z,6.43
2018-04-11T18:02:42.389Z,6.77
2018-04-11T18:05:10.628Z,6.57
2018-04-11T18:07:38.888Z,6.10
2018-04-11T18:10:07.148Z,6.83
2018-04-11T18:12:35.400Z,6.83
2018-04-11T18:15:03.648Z,7.03
2018-04-11T18:17:32.681Z,6.27
2018-04-11T18:20:00.925Z,5.50
2018-04-11T18:22:29.946Z,6.50
2018-04-11T18:24:58.184Z,6.27
2018-04-11T18:27:27.203Z,5.77
2018-04-11T18:29:55.491Z,6.03
2018-04-11T18:32:24.480Z,5.83
2018-04-11T18:34:52.720Z,7.10
2018-04-11T18:37:21.729Z,7.00
2018-04-11T18:39:49.989Z,5.60
2018-04-11T18:42:19.004Z,5.57
2018-04-11T18:44:47.269Z,5.87
2018-04-11T18:47:16.298Z,5.23
2018-04-11T18:49:44.539Z,5.43
2018-04-11T18:52:13.556Z,6.20
2018-04-11T18:54:41.817Z,6.07
2018-04-11T18:57:10.074Z,5.93
2018-04-11T18:59:39.096Z,5.00
2018-04-11T19:02:07.348Z,6.73
2018-04-11T19:04:36.372Z,6.17
2018-04-11T19:07:04.621Z,5.40
2018-04-11T19:09:32.879Z,6.07
2018-04-11T19:12:01.901Z,5.77
2018-04-11T19:14:30.160Z,6.03
2018-04-11T19:16:59.166Z,5.30
2018-04-11T19:19:27.416Z,5.90
2018-04-11T19:21:56.429Z,5.80
2018-04-11T19:24:25.453Z,5.97
2018-04-11T19:26:53.701Z,5.90
2018-04-11T19:29:22.718Z,4.70
2018-04-11T19:31:50.964Z,6.07
2018-04-11T19:34:19.989Z,5.47
2018-04-11T19:36:48.243Z,5.57
2018-04-11T19:39:16.482Z,5.50
2018-04-11T19:41:44.738Z,6.30
2018-04-11T19:44:12.992Z,5.20
2018-04-11T19:46:41.240Z,5.60
2018-04-11T19:49:09.489Z,4.87
2018-04-11T19:51:38.517Z,5.63
2018-04-11T19:54:06.768Z,5.20
2018-04-11T19:56:35.788Z,5.40
2018-04-11T19:59:04.031Z,6.60
2018-04-11T20:01:33.054Z,5.67
2018-04-11T20:04:01.323Z,6.10
2018-04-11T20:06:29.580Z,7.10
2018-04-11T20:08:58.596Z,5.90
2018-04-11T20:11:26.854Z,6.10
2018-04-11T20:13:55.912Z,6.53
2018-04-11T20:16:24.125Z,6.63
2018-04-11T20:18:53.126Z,6.30
2018-04-11T20:21:21.381Z,6.40
2018-04-11T20:23:50.419Z,7.87
2018-04-11T20:26:18.671Z,6.40
2018-04-11T20:28:46.920Z,7.17
2018-04-11T20:31:15.943Z,6.53
2018-04-11T20:33:44.196Z,7.37
2018-04-11T20:36:13.203Z,7.20
2018-04-11T20:38:41.464Z,7.97
2018-04-11T20:41:10.480Z,8.50
2018-04-11T20:43:38.745Z,8.30
2018-04-11T20:46:07.012Z,8.90
2018-04-11T20:48:36.033Z,9.70
2018-04-11T20:51:04.291Z,10.90
2018-04-11T20:53:33.322Z,11.40
2018-04-11T20:56:01.570Z,11.53
2018-04-11T20:58:29.838Z,9.50
2018-04-11T21:00:58.867Z,11.90
2018-04-11T21:03:27.130Z,11.47
2018-04-11T21:05:55.389Z,10.90
2018-04-11T21:08:23.657Z,10.70
2018-04-11T21:10:51.903Z,12.07
2018-04-11T21:13:20.166Z,14.07
2018-04-11T21:15:48.427Z,13.90
2018-04-11T21:18:16.680Z,13.47
2018-04-11T21:20:44.956Z,14.47
2018-04-11T21:23:13.214Z,14.63
2018-04-11T21:25:41.489Z,13.93
2018-04-11T21:28:10.493Z,14.80
2018-04-11T21:30:39.520Z,13.80
2018-04-11T21:33:07.795Z,16.00
2018-04-11T21:35:36.065Z,14.50
2018-04-11T21:38:04.312Z,15.30
2018-04-11T21:40:32.583Z,15.50
2018-04-11T21:43:00.840Z,16.70
2018-04-11T21:45:29.865Z,17.80
2018-04-11T21:47:58.119Z,17.10
2018-04-11T21:50:26.396Z,17.90
2018-04-11T21:52:54.648Z,18.37
2018-04-11T21:55:22.923Z,17.47
2018-04-11T21:57:51.962Z,19.80
2018-04-11T22:00:20.200Z,18.60
2018-04-11T22:02:49.237Z,18.60
2018-04-11T22:05:17.497Z,19.13
2018-04-11T22:07:45.770Z,20.50
2018-04-11T22:10:14.028Z,20.90
2018-04-11T22:12:43.052Z,21.60
2018-04-11T22:15:11.344Z,20.20
2018-04-11T22:17:40.329Z,20.87
2018-04-11T22:20:08.589Z,22.73
2018-04-11T22:22:36.852Z,23.47
2018-04-11T22:25:05.104Z,23.13
2018-04-11T22:27:33.372Z,20.73
2018-04-11T22:30:01.620Z,23.27
2018-04-11T22:32:29.880Z,22.13
2018-04-11T22:34:58.132Z,23.60
2018-04-11T22:37:26.397Z,26.43
2018-04-11T22:39:55.417Z,25.60
2018-04-11T22:42:23.697Z,26.30
2018-04-11T22:44:51.935Z,25.70
2018-04-11T22:47:20.985Z,24.73
2018-04-11T22:49:49.236Z,27.60
2018-04-11T22:52:17.487Z,29.83
2018-04-11T22:54:46.512Z,27.50
2018-04-11T22:57:14.768Z,28.00
